Time;durP1;ratioP1;P1;durP2;ratioP2;P2;SDS_P1;SDS_P2;PMS_P1;PMS_P2;Temp;Humidity;BMP_temperature;BMP_pressure;BME280_temperature;BME280_humidity;BME280_pressure;Samples;Min_cycle;Max_cycle;Signal;HPM_P1;HPM_P2
2022/06/11 00:01:45;;;;;;;4.00;0.95;;;;;;;;;;5000559;28;20053;-64
2022/06/11 00:04:15;;;;;;;3.35;0.60;;;;;;;;;;5001159;28;20096;-66
2022/06/11 00:06:44;;;;;;;4.70;0.43;;;;;;;;;;5013864;28;20042;-67
2022/06/11 00:09:11;;;;;;;1.63;0.40;;;;;;;;;;5000557;28;20046;-66
2022/06/11 00:11:38;;;;;;;2.75;0.70;;;;;;;;;;4999875;28;20041;-65
2022/06/11 00:14:05;;;;;;;2.78;0.50;;;;;;;;;;4999815;28;20879;-66
2022/06/11 00:16:32;;;;;;;2.33;0.40;;;;;;;;;;4998861;28;20053;-65
2022/06/11 00:18:59;;;;;;;1.23;0.40;;;;;;;;;;5001706;28;20036;-66
2022/06/11 00:21:27;;;;;;;1.25;0.50;;;;;;;;;;4999793;28;20049;-65
2022/06/11 00:23:54;;;;;;;3.65;0.77;;;;;;;;;;4999531;28;20156;-65
2022/06/11 00:26:22;;;;;;;16.95;1.23;;;;;;;;;;5000857;28;20050;-64
2022/06/11 00:28:49;;;;;;;2.88;0.50;;;;;;;;;;5001259;28;20038;-64
2022/06/11 00:31:16;;;;;;;7.80;0.75;;;;;;;;;;5001832;28;20064;-64
2022/06/11 00:33:43;;;;;;;8.50;1.00;;;;;;;;;;5001996;28;20511;-64
2022/06/11 00:36:10;;;;;;;3.55;0.57;;;;;;;;;;5002963;28;20046;-61
2022/06/11 00:38:37;;;;;;;3.50;0.60;;;;;;;;;;4998491;28;20065;-61
2022/06/11 00:41:07;;;;;;;2.85;0.35;;;;;;;;;;5014565;28;21829;-65
2022/06/11 00:43:37;;;;;;;1.00;0.40;;;;;;;;;;4999315;28;20082;-65
2022/06/11 00:46:22;;;;;;;3.40;0.55;;;;;;;;;;5031674;28;20074;-66
2022/06/11 00:48:49;;;;;;;3.00;0.50;;;;;;;;;;4997814;28;20042;-65
2022/06/11 00:51:22;;;;;;;1.60;0.40;;;;;;;;;;5000413;28;20058;-67
2022/06/11 00:53:57;;;;;;;0.80;0.35;;;;;;;;;;4998831;28;20459;-65
2022/06/11 00:56:24;;;;;;;3.45;0.50;;;;;;;;;;4998948;28;20034;-66
2022/06/11 00:58:52;;;;;;;2.50;0.32;;;;;;;;;;4998616;28;20441;-67
2022/06/11 01:01:19;;;;;;;1.35;0.40;;;;;;;;;;5000693;28;20054;-65
2022/06/11 01:03:47;;;;;;;1.35;0.50;;;;;;;;;;4998122;28;20053;-66
2022/06/11 01:06:36;;;;;;;2.65;0.40;;;;;;;;;;4999236;28;20116;-65
2022/06/11 01:09:08;;;;;;;1.15;0.40;;;;;;;;;;4999179;28;20143;-66
2022/06/11 01:11:53;;;;;;;1.95;0.30;;;;;;;;;;4999216;28;20045;-66
2022/06/11 01:14:40;;;;;;;1.83;0.40;;;;;;;;;;5001027;28;20075;-66
2022/06/11 01:17:19;;;;;;;1.88;0.47;;;;;;;;;;4998506;28;20053;-66
2022/06/11 01:19:52;;;;;;;1.10;0.50;;;;;;;;;;4999256;28;20049;-66
2022/06/11 01:22:28;;;;;;;1.30;0.30;;;;;;;;;;4999302;28;20053;-67
2022/06/11 01:25:03;;;;;;;2.33;0.55;;;;;;;;;;4997468;28;20037;-67
2022/06/11 01:27:33;;;;;;;1.17;0.50;;;;;;;;;;4998611;28;20477;-67
2022/06/11 01:30:01;;;;;;;3.15;0.50;;;;;;;;;;5014705;28;20041;-66
2022/06/11 01:32:46;;;;;;;3.55;0.43;;;;;;;;;;4997145;28;20048;-66
2022/06/11 01:35:31;;;;;;;3.53;0.55;;;;;;;;;;4999357;28;20038;-66
2022/06/11 01:38:27;;;;;;;2.10;0.52;;;;;;;;;;4997869;28;20040;-67
2022/06/11 01:40:56;;;;;;;1.33;0.47;;;;;;;;;;4997862;28;20064;-67
2022/06/11 01:43:40;;;;;;;2.40;0.50;;;;;;;;;;4998006;28;20033;-67
2022/06/11 01:46:11;;;;;;;1.25;0.40;;;;;;;;;;5000309;28;21460;-68
2022/06/11 01:48:37;;;;;;;1.65;0.50;;;;;;;;;;4995954;28;20037;-66
2022/06/11 01:51:04;;;;;;;3.00;0.65;;;;;;;;;;5000086;28;20041;-68
2022/06/11 01:53:55;;;;;;;1.88;0.60;;;;;;;;;;4998824;28;20072;-66
2022/06/11 01:56:27;;;;;;;2.33;0.68;;;;;;;;;;4998413;28;20069;-65
2022/06/11 01:58:53;;;;;;;;;;;;;;;;;;4999836;28;20030;-63
2022/06/11 02:01:29;;;;;;;2.22;0.57;;;;;;;;;;5001159;28;20384;-65
2022/06/11 02:04:03;;;;;;;2.85;0.50;;;;;;;;;;4998473;28;20041;-65
2022/06/11 02:06:45;;;;;;;2.55;0.60;;;;;;;;;;4999527;28;20085;-66
2022/06/11 02:09:24;;;;;;;2.27;0.50;;;;;;;;;;5003575;28;20622;-59
2022/06/11 02:11:59;;;;;;;4.30;0.75;;;;;;;;;;5001379;28;20490;-65
2022/06/11 02:14:44;;;;;;;2.55;0.50;;;;;;;;;;4998425;28;20113;-66
2022/06/11 02:17:13;;;;;;;2.20;0.50;;;;;;;;;;4999972;28;20065;-67
2022/06/11 02:19:49;;;;;;;2.88;0.50;;;;;;;;;;5015125;28;20660;-65
2022/06/11 02:22:29;;;;;;;7.13;0.70;;;;;;;;;;5000019;28;20053;-66
2022/06/11 02:25:14;;;;;;;6.22;0.60;;;;;;;;;;4999714;28;20126;-66
2022/06/11 02:27:42;;;;;;;5.88;0.47;;;;;;;;;;4998521;28;21671;-65
2022/06/11 02:30:11;;;;;;;2.28;0.60;;;;;;;;;;5001989;28;20042;-64
2022/06/11 02:32:38;;;;;;;1.27;0.50;;;;;;;;;;5030826;28;20104;-64
2022/06/11 02:35:07;;;;;;;2.38;0.60;;;;;;;;;;5000435;28;20041;-64
2022/06/11 02:37:39;;;;;;;4.60;0.60;;;;;;;;;;4998300;28;20041;-65
2022/06/11 02:40:11;;;;;;;1.60;0.50;;;;;;;;;;4999852;28;20062;-64
2022/06/11 02:42:38;;;;;;;3.83;0.60;;;;;;;;;;4997754;28;20066;-63
2022/06/11 02:45:05;;;;;;;6.18;0.40;;;;;;;;;;4997751;28;20041;-65
2022/06/11 02:47:32;;;;;;;4.40;0.63;;;;;;;;;;5000188;28;20434;-65
2022/06/11 02:49:59;;;;;;;1.17;0.40;;;;;;;;;;4999431;28;20038;-66
2022/06/11 02:52:26;;;;;;;2.00;0.50;;;;;;;;;;4997606;28;20042;-65
2022/06/11 02:54:52;;;;;;;2.45;0.50;;;;;;;;;;5029152;28;20034;-65
2022/06/11 02:57:22;;;;;;;1.88;0.50;;;;;;;;;;4995915;28;20030;-65
2022/06/11 02:59:49;;;;;;;1.23;0.40;;;;;;;;;;4999478;28;20042;-65
2022/06/11 03:02:16;;;;;;;1.88;0.60;;;;;;;;;;5000416;28;20054;-64
2022/06/11 03:04:42;;;;;;;1.55;0.47;;;;;;;;;;5001710;28;20054;-65
2022/06/11 03:07:09;;;;;;;2.00;0.50;;;;;;;;;;4999906;28;20062;-65
2022/06/11 03:09:36;;;;;;;2.45;0.60;;;;;;;;;;4999910;28;20071;-66
2022/06/11 03:12:05;;;;;;;6.57;0.63;;;;;;;;;;5002327;28;20076;-65
2022/06/11 03:14:32;;;;;;;1.88;0.52;;;;;;;;;;5000896;28;20096;-65
2022/06/11 03:16:58;;;;;;;1.95;0.60;;;;;;;;;;4998745;28;20038;-62
2022/06/11 03:19:25;;;;;;;2.17;0.60;;;;;;;;;;5000662;28;20037;-67
2022/06/11 03:21:54;;;;;;;2.42;0.60;;;;;;;;;;5002144;28;20092;-66
2022/06/11 03:24:21;;;;;;;2.40;0.60;;;;;;;;;;5001069;28;20034;-66
2022/06/11 03:26:48;;;;;;;1.45;0.40;;;;;;;;;;5001171;28;20042;-65
2022/06/11 03:29:15;;;;;;;2.42;0.68;;;;;;;;;;4999655;28;20045;-65
2022/06/11 03:31:43;;;;;;;6.07;0.60;;;;;;;;;;5000580;28;20546;-64
2022/06/11 03:34:09;;;;;;;3.15;0.70;;;;;;;;;;5033016;28;20034;-64
2022/06/11 03:36:36;;;;;;;2.80;0.57;;;;;;;;;;4999745;28;20071;-65
2022/06/11 03:39:03;;;;;;;1.63;0.60;;;;;;;;;;5001096;28;20053;-63
2022/06/11 03:41:31;;;;;;;2.03;0.60;;;;;;;;;;5032933;28;20057;-64
2022/06/11 03:43:58;;;;;;;2.33;0.88;;;;;;;;;;5002715;28;20128;-65
2022/06/11 03:46:25;;;;;;;3.47;0.68;;;;;;;;;;5003951;28;20335;-66
2022/06/11 03:48:52;;;;;;;1.25;0.50;;;;;;;;;;5001064;28;20039;-66
2022/06/11 03:51:19;;;;;;;2.08;0.60;;;;;;;;;;5002436;28;20044;-65
2022/06/11 03:53:47;;;;;;;4.43;0.50;;;;;;;;;;5001626;28;20072;-65
2022/06/11 03:56:14;;;;;;;1.98;0.50;;;;;;;;;;5017833;28;20042;-65
2022/06/11 03:58:43;;;;;;;2.92;0.50;;;;;;;;;;4999296;28;20076;-66
2022/06/11 04:01:16;;;;;;;2.92;0.50;;;;;;;;;;5002204;28;20061;-65
2022/06/11 04:04:08;;;;;;;2.15;0.70;;;;;;;;;;5004379;28;20049;-66
2022/06/11 04:06:37;;;;;;;6.40;0.60;;;;;;;;;;4999367;28;20049;-67
2022/06/11 04:09:08;;;;;;;1.45;0.50;;;;;;;;;;5032243;28;20327;-66
2022/06/11 04:11:35;;;;;;;2.83;0.52;;;;;;;;;;5001959;28;20065;-67
2022/06/11 04:14:01;;;;;;;2.33;0.50;;;;;;;;;;5002449;28;20069;-67
2022/06/11 04:16:28;;;;;;;1.58;0.47;;;;;;;;;;5002285;28;20045;-66
2022/06/11 04:18:56;;;;;;;3.10;0.47;;;;;;;;;;5001366;28;20038;-66
2022/06/11 04:21:24;;;;;;;5.97;0.73;;;;;;;;;;5001609;28;20055;-66
2022/06/11 04:23:51;;;;;;;2.38;0.65;;;;;;;;;;5034487;28;20046;-66
2022/06/11 04:26:20;;;;;;;3.08;0.70;;;;;;;;;;5003393;28;20033;-66
2022/06/11 04:28:47;;;;;;;3.30;0.70;;;;;;;;;;5000348;28;20065;-65
2022/06/11 04:31:15;;;;;;;3.67;0.82;;;;;;;;;;5003173;28;20053;-66
2022/06/11 04:33:43;;;;;;;1.70;0.50;;;;;;;;;;5003303;28;20100;-64
2022/06/11 04:36:20;;;;;;;3.15;0.63;;;;;;;;;;5002871;28;20046;-64
2022/06/11 04:38:46;;;;;;;2.20;0.60;;;;;;;;;;5014623;28;20058;-68
2022/06/11 04:41:13;;;;;;;2.40;0.50;;;;;;;;;;5000190;28;20150;-69
2022/06/11 04:43:41;;;;;;;2.05;0.70;;;;;;;;;;5011158;28;20304;-68
2022/06/11 04:46:08;;;;;;;1.75;0.50;;;;;;;;;;5014561;28;20100;-68
2022/06/11 04:48:35;;;;;;;1.65;0.60;;;;;;;;;;4998983;28;20176;-67
2022/06/11 04:51:02;;;;;;;2.67;0.70;;;;;;;;;;5003283;28;20041;-67
2022/06/11 04:53:31;;;;;;;5.03;0.70;;;;;;;;;;5030297;28;20066;-67
2022/06/11 04:55:57;;;;;;;2.13;0.60;;;;;;;;;;4998462;28;20045;-67
2022/06/11 04:58:24;;;;;;;1.92;0.50;;;;;;;;;;4998336;28;20042;-68
2022/06/11 05:00:51;;;;;;;1.65;0.45;;;;;;;;;;4998741;28;20219;-68
2022/06/11 05:03:18;;;;;;;1.20;0.40;;;;;;;;;;4996805;28;20037;-68
2022/06/11 05:05:45;;;;;;;2.08;0.60;;;;;;;;;;4996135;28;20073;-67
2022/06/11 05:08:12;;;;;;;1.95;0.60;;;;;;;;;;4997706;28;20160;-66
2022/06/11 05:10:39;;;;;;;1.58;0.47;;;;;;;;;;4997098;28;20033;-66
2022/06/11 05:13:07;;;;;;;1.75;0.45;;;;;;;;;;4998734;28;20402;-66
2022/06/11 05:15:34;;;;;;;1.65;0.50;;;;;;;;;;4997622;28;20068;-66
2022/06/11 05:18:01;;;;;;;1.70;0.45;;;;;;;;;;4996108;28;20414;-67
2022/06/11 05:20:28;;;;;;;2.55;0.57;;;;;;;;;;4996385;28;20072;-66
2022/06/11 05:22:54;;;;;;;3.83;0.60;;;;;;;;;;4996020;28;21234;-67
2022/06/11 05:25:22;;;;;;;1.98;0.50;;;;;;;;;;4997392;28;20393;-67
2022/06/11 05:27:49;;;;;;;2.70;0.47;;;;;;;;;;4996584;28;20873;-67
2022/06/11 05:30:18;;;;;;;2.15;0.50;;;;;;;;;;4996282;28;20533;-67
2022/06/11 05:32:45;;;;;;;1.40;0.52;;;;;;;;;;4995507;28;20107;-66
2022/06/11 05:35:18;;;;;;;3.30;0.57;;;;;;;;;;4997308;28;20052;-66
2022/06/11 05:37:45;;;;;;;2.00;0.50;;;;;;;;;;4994540;28;20046;-66
2022/06/11 05:40:13;;;;;;;1.75;0.70;;;;;;;;;;4997936;28;20038;-67
2022/06/11 05:42:40;;;;;;;2.85;0.60;;;;;;;;;;4996374;28;20038;-67
2022/06/11 05:45:07;;;;;;;3.97;0.88;;;;;;;;;;4997479;28;20037;-67
2022/06/11 05:47:34;;;;;;;2.22;0.65;;;;;;;;;;4995977;28;20223;-67
2022/06/11 05:50:02;;;;;;;4.10;0.63;;;;;;;;;;4996301;28;20487;-67
2022/06/11 05:52:30;;;;;;;1.20;0.50;;;;;;;;;;4996121;28;20038;-66
2022/06/11 05:54:57;;;;;;;2.88;0.50;;;;;;;;;;4996836;28;20104;-67
2022/06/11 05:57:25;;;;;;;1.48;0.50;;;;;;;;;;4995671;28;20046;-67
2022/06/11 05:59:54;;;;;;;2.53;0.50;;;;;;;;;;4996636;28;20512;-67
2022/06/11 06:02:22;;;;;;;4.60;0.60;;;;;;;;;;4995575;28;20057;-66
2022/06/11 06:04:48;;;;;;;2.70;0.57;;;;;;;;;;4996544;28;20045;-66
2022/06/11 06:07:15;;;;;;;3.30;0.73;;;;;;;;;;4995739;28;20103;-67
2022/06/11 06:09:42;;;;;;;3.17;0.70;;;;;;;;;;4996217;28;20037;-67
2022/06/11 06:12:09;;;;;;;2.58;0.50;;;;;;;;;;4996006;28;20042;-67
2022/06/11 06:14:36;;;;;;;1.88;0.57;;;;;;;;;;4995884;28;20081;-68
2022/06/11 06:17:02;;;;;;;1.40;0.47;;;;;;;;;;4996034;28;20581;-67
2022/06/11 06:19:29;;;;;;;3.83;0.60;;;;;;;;;;4996781;28;20040;-66
2022/06/11 06:21:56;;;;;;;2.25;0.73;;;;;;;;;;5012404;28;20147;-66
2022/06/11 06:24:22;;;;;;;1.80;0.50;;;;;;;;;;4995200;28;20069;-66
2022/06/11 06:26:49;;;;;;;2.22;0.52;;;;;;;;;;4996219;28;21630;-66
2022/06/11 06:29:15;;;;;;;3.63;0.80;;;;;;;;;;4996692;28;20153;-67
2022/06/11 06:31:42;;;;;;;3.55;0.60;;;;;;;;;;4994864;28;20037;-66
2022/06/11 06:34:09;;;;;;;4.38;1.20;;;;;;;;;;4997982;28;20049;-67
2022/06/11 06:36:35;;;;;;;2.58;0.68;;;;;;;;;;5000122;28;20041;-67
2022/06/11 06:39:02;;;;;;;1.40;0.47;;;;;;;;;;5000163;28;20132;-67
2022/06/11 06:41:29;;;;;;;2.95;0.77;;;;;;;;;;5000585;28;20958;-66
2022/06/11 06:43:56;;;;;;;1.70;0.52;;;;;;;;;;5000971;28;20532;-66
2022/06/11 06:46:22;;;;;;;1.45;0.45;;;;;;;;;;4999451;28;20514;-66
2022/06/11 06:48:49;;;;;;;5.07;0.60;;;;;;;;;;5000528;28;20069;-65
2022/06/11 06:51:18;;;;;;;2.88;0.65;;;;;;;;;;5000943;28;20064;-66
2022/06/11 06:53:45;;;;;;;1.75;0.60;;;;;;;;;;4999712;28;20034;-66
2022/06/11 06:56:12;;;;;;;2.25;0.63;;;;;;;;;;5000613;28;20109;-67
2022/06/11 06:58:39;;;;;;;3.42;0.60;;;;;;;;;;4998619;28;20073;-67
2022/06/11 07:01:06;;;;;;;1.42;0.43;;;;;;;;;;5000223;28;20172;-67
2022/06/11 07:03:32;;;;;;;3.42;0.73;;;;;;;;;;5000096;28;20046;-67
2022/06/11 07:06:01;;;;;;;4.93;0.70;;;;;;;;;;4998958;28;20422;-67
2022/06/11 07:08:28;;;;;;;2.90;0.70;;;;;;;;;;4997437;28;20103;-67
2022/06/11 07:10:55;;;;;;;2.63;0.60;;;;;;;;;;5000460;28;20038;-67
2022/06/11 07:13:22;;;;;;;3.90;0.70;;;;;;;;;;5014066;28;20046;-68
2022/06/11 07:15:50;;;;;;;1.20;0.47;;;;;;;;;;4999675;28;20165;-67
2022/06/11 07:18:27;;;;;;;2.25;0.65;;;;;;;;;;4998044;28;20438;-67
2022/06/11 07:20:56;;;;;;;1.92;0.60;;;;;;;;;;4999459;28;20164;-66
2022/06/11 07:23:35;;;;;;;1.48;0.50;;;;;;;;;;4999491;28;20129;-68
2022/06/11 07:26:03;;;;;;;2.90;0.70;;;;;;;;;;5000634;28;20057;-66
2022/06/11 07:28:34;;;;;;;2.58;0.50;;;;;;;;;;4999480;28;20053;-67
2022/06/11 07:31:00;;;;;;;1.90;0.50;;;;;;;;;;5000627;28;20033;-66
2022/06/11 07:33:28;;;;;;;1.83;0.50;;;;;;;;;;5000754;28;20045;-67
2022/06/11 07:35:55;;;;;;;3.38;0.60;;;;;;;;;;5000309;28;20045;-67
2022/06/11 07:38:22;;;;;;;1.55;0.55;;;;;;;;;;4998069;28;20045;-67
2022/06/11 07:40:49;;;;;;;3.13;0.75;;;;;;;;;;4999802;28;20054;-67
2022/06/11 07:43:17;;;;;;;1.30;0.43;;;;;;;;;;4999730;28;20061;-67
2022/06/11 07:45:44;;;;;;;1.65;0.52;;;;;;;;;;4997105;28;20041;-67
2022/06/11 07:48:11;;;;;;;1.23;0.40;;;;;;;;;;4998481;28;20045;-67
2022/06/11 07:50:40;;;;;;;3.45;0.60;;;;;;;;;;4997766;28;20689;-67
2022/06/11 07:53:07;;;;;;;4.80;0.80;;;;;;;;;;4999005;28;20054;-67
2022/06/11 07:55:35;;;;;;;3.33;0.60;;;;;;;;;;4996666;28;20041;-68
2022/06/11 07:58:02;;;;;;;3.35;0.57;;;;;;;;;;4998073;28;20062;-68
2022/06/11 08:00:35;;;;;;;1.58;0.47;;;;;;;;;;4997765;28;20045;-68
2022/06/11 08:03:01;;;;;;;1.50;0.52;;;;;;;;;;4998240;28;20161;-68
2022/06/11 08:05:28;;;;;;;1.92;0.55;;;;;;;;;;4997814;28;20378;-67
2022/06/11 08:07:55;;;;;;;2.40;0.60;;;;;;;;;;4997037;28;20116;-68
2022/06/11 08:10:23;;;;;;;1.90;0.60;;;;;;;;;;4998318;28;20131;-68
2022/06/11 08:12:50;;;;;;;2.63;0.80;;;;;;;;;;4997804;28;20528;-68
2022/06/11 08:15:17;;;;;;;3.05;0.65;;;;;;;;;;4998906;28;20038;-68
2022/06/11 08:17:44;;;;;;;1.33;0.50;;;;;;;;;;4998604;28;20053;-68
2022/06/11 08:20:13;;;;;;;3.28;0.60;;;;;;;;;;4998720;28;20493;-68
2022/06/11 08:22:40;;;;;;;2.42;0.65;;;;;;;;;;4997419;28;20049;-67
2022/06/11 08:25:07;;;;;;;2.70;0.68;;;;;;;;;;4997962;28;20050;-67
2022/06/11 08:27:34;;;;;;;3.20;0.70;;;;;;;;;;4995896;28;20422;-67
2022/06/11 08:30:00;;;;;;;2.17;0.60;;;;;;;;;;4997826;28;20042;-68
2022/06/11 08:32:27;;;;;;;2.28;0.65;;;;;;;;;;4998238;28;20124;-67
2022/06/11 08:34:54;;;;;;;2.13;0.60;;;;;;;;;;4999368;28;20061;-67
2022/06/11 08:37:21;;;;;;;2.75;0.70;;;;;;;;;;4997388;28;20025;-67
2022/06/11 08:39:48;;;;;;;1.98;0.50;;;;;;;;;;4998436;28;20045;-67
2022/06/11 08:42:36;;;;;;;2.30;0.60;;;;;;;;;;4998962;28;20065;-67
2022/06/11 08:45:15;;;;;;;1.73;0.50;;;;;;;;;;4999004;28;20080;-67
2022/06/11 08:47:44;;;;;;;2.70;0.50;;;;;;;;;;4998297;28;20451;-67
2022/06/11 08:50:14;;;;;;;2.67;0.57;;;;;;;;;;5000688;28;20038;-66
2022/06/11 08:52:41;;;;;;;2.92;0.70;;;;;;;;;;5000765;28;20597;-66
2022/06/11 08:55:08;;;;;;;2.05;0.55;;;;;;;;;;4999191;28;20968;-65
2022/06/11 08:57:34;;;;;;;3.25;0.60;;;;;;;;;;4996246;28;20164;-65
2022/06/11 09:00:10;;;;;;;3.65;0.70;;;;;;;;;;4996950;28;20397;-66
2022/06/11 09:02:46;;;;;;;6.53;0.70;;;;;;;;;;4999447;28;20061;-66
2022/06/11 09:05:31;;;;;;;1.98;0.70;;;;;;;;;;5000185;28;20046;-66
2022/06/11 09:07:58;;;;;;;2.00;0.63;;;;;;;;;;4999283;28;20041;-66
2022/06/11 09:10:39;;;;;;;2.30;0.60;;;;;;;;;;4999282;28;20065;-66
2022/06/11 09:13:16;;;;;;;2.20;0.50;;;;;;;;;;4999124;28;20556;-66
2022/06/11 09:15:45;;;;;;;2.50;0.60;;;;;;;;;;5001625;28;20092;-66
2022/06/11 09:18:31;;;;;;;4.65;0.70;;;;;;;;;;5030230;28;20045;-67
2022/06/11 09:21:00;;;;;;;4.82;0.75;;;;;;;;;;4998276;28;21996;-66
2022/06/11 09:23:27;;;;;;;3.47;1.00;;;;;;;;;;4996758;28;20073;-66
2022/06/11 09:26:09;;;;;;;7.45;1.00;;;;;;;;;;4998128;28;20406;-66
2022/06/11 09:28:36;;;;;;;3.33;0.85;;;;;;;;;;4996428;28;20077;-67
2022/06/11 09:31:08;;;;;;;13.75;1.10;;;;;;;;;;4998390;28;20033;-67
2022/06/11 09:33:53;;;;;;;5.85;0.90;;;;;;;;;;4997438;28;20034;-66
2022/06/11 09:36:29;;;;;;;4.68;0.80;;;;;;;;;;4996162;28;20061;-67
2022/06/11 09:39:06;;;;;;;3.10;0.80;;;;;;;;;;4997495;28;20387;-66
2022/06/11 09:41:46;;;;;;;3.70;0.90;;;;;;;;;;4997440;28;20062;-66
2022/06/11 09:44:15;;;;;;;4.88;0.88;;;;;;;;;;4999354;28;20050;-66
2022/06/11 09:46:45;;;;;;;2.08;0.55;;;;;;;;;;4998229;28;20069;-66
2022/06/11 09:49:19;;;;;;;2.25;0.75;;;;;;;;;;5000769;28;20042;-66
2022/06/11 09:51:45;;;;;;;;;;;;;;;;;;5000481;28;20038;-66
2022/06/11 09:54:24;;;;;;;1.98;0.60;;;;;;;;;;4999902;28;19980;-66
2022/06/11 09:56:50;;;;;;;2.80;0.63;;;;;;;;;;4998039;28;20052;-66
2022/06/11 09:59:40;;;;;;;2.25;0.70;;;;;;;;;;4999506;28;20042;-66
2022/06/11 10:02:07;;;;;;;1.70;0.63;;;;;;;;;;4993634;28;20169;-67
2022/06/11 10:04:41;;;;;;;1.50;0.50;;;;;;;;;;4997228;28;20518;-67
2022/06/11 10:07:11;;;;;;;3.17;0.65;;;;;;;;;;4997975;28;20049;-67
2022/06/11 10:09:58;;;;;;;2.45;0.50;;;;;;;;;;4999779;28;20038;-67
2022/06/11 10:12:25;;;;;;;1.40;0.57;;;;;;;;;;4999877;28;20045;-67
2022/06/11 10:14:51;;;;;;;2.88;0.63;;;;;;;;;;5000896;28;20042;-67
2022/06/11 10:17:21;;;;;;;1.73;0.60;;;;;;;;;;5001384;28;20137;-67
2022/06/11 10:19:56;;;;;;;1.45;0.47;;;;;;;;;;4999314;28;20050;-67
2022/06/11 10:22:26;;;;;;;2.55;0.60;;;;;;;;;;4999348;28;20042;-67
2022/06/11 10:25:02;;;;;;;2.13;0.60;;;;;;;;;;5000703;28;20545;-67
2022/06/11 10:27:30;;;;;;;4.20;0.68;;;;;;;;;;4999622;28;20042;-67
2022/06/11 10:30:02;;;;;;;2.53;0.70;;;;;;;;;;5000059;28;20506;-67
2022/06/11 10:32:36;;;;;;;1.90;0.50;;;;;;;;;;4999426;28;20058;-67
2022/06/11 10:35:14;;;;;;;1.80;0.60;;;;;;;;;;5000618;28;20038;-67
2022/06/11 10:37:46;;;;;;;2.50;0.80;;;;;;;;;;5029616;28;20057;-67
2022/06/11 10:40:22;;;;;;;4.80;0.80;;;;;;;;;;5000016;28;20161;-67
2022/06/11 10:42:57;;;;;;;1.55;0.50;;;;;;;;;;5015330;28;20049;-66
2022/06/11 10:45:24;;;;;;;1.85;0.60;;;;;;;;;;5000313;28;20141;-67
2022/06/11 10:47:54;;;;;;;1.77;0.60;;;;;;;;;;5000144;28;20132;-67
2022/06/11 10:50:27;;;;;;;4.07;0.70;;;;;;;;;;5002012;28;20041;-67
2022/06/11 10:53:11;;;;;;;2.03;0.57;;;;;;;;;;5001752;28;20061;-67
2022/06/11 10:55:47;;;;;;;3.03;0.75;;;;;;;;;;5001788;28;20054;-67
2022/06/11 10:58:29;;;;;;;1.90;0.60;;;;;;;;;;5000342;28;20112;-67
2022/06/11 11:00:59;;;;;;;1.53;0.47;;;;;;;;;;4999850;28;20084;-67
2022/06/11 11:03:43;;;;;;;1.73;0.50;;;;;;;;;;5000546;28;20064;-67
2022/06/11 11:06:17;;;;;;;4.30;0.60;;;;;;;;;;5000404;28;20057;-67
2022/06/11 11:08:54;;;;;;;1.40;0.43;;;;;;;;;;4998878;28;20041;-67
2022/06/11 11:11:21;;;;;;;1.20;0.50;;;;;;;;;;5000698;28;20042;-67
2022/06/11 11:13:48;;;;;;;1.88;0.57;;;;;;;;;;5000358;28;20034;-67
2022/06/11 11:16:21;;;;;;;2.28;0.43;;;;;;;;;;5000272;28;20078;-67
2022/06/11 11:18:47;;;;;;;1.75;0.50;;;;;;;;;;5000358;28;20582;-67
2022/06/11 11:21:23;;;;;;;2.03;0.50;;;;;;;;;;5000076;28;20065;-67
2022/06/11 11:23:51;;;;;;;1.73;0.43;;;;;;;;;;5001357;28;20909;-67
2022/06/11 11:26:26;;;;;;;0.50;0.32;;;;;;;;;;5001541;28;20124;-67
2022/06/11 11:29:02;;;;;;;1.45;0.50;;;;;;;;;;5001290;28;20121;-67
2022/06/11 11:31:32;;;;;;;1.48;0.40;;;;;;;;;;5001070;28;20096;-67
2022/06/11 11:34:00;;;;;;;1.55;0.40;;;;;;;;;;5031808;28;20042;-67
2022/06/11 11:36:27;;;;;;;4.57;0.50;;;;;;;;;;4999409;28;20070;-67
2022/06/11 11:39:02;;;;;;;12.57;0.85;;;;;;;;;;5002669;28;20046;-67
2022/06/11 11:41:33;;;;;;;2.53;0.60;;;;;;;;;;5002122;28;20332;-66
2022/06/11 11:43:59;;;;;;;1.85;0.60;;;;;;;;;;5002959;28;20092;-66
2022/06/11 11:46:32;;;;;;;1.55;0.50;;;;;;;;;;5001618;28;20499;-66
2022/06/11 11:48:59;;;;;;;0.73;0.32;;;;;;;;;;5001522;28;21039;-67
2022/06/11 11:51:32;;;;;;;0.77;0.30;;;;;;;;;;4999546;28;21100;-67
2022/06/11 11:53:59;;;;;;;1.35;0.40;;;;;;;;;;5000328;28;20108;-67
2022/06/11 11:56:39;;;;;;;2.55;0.50;;;;;;;;;;5031077;28;20037;-67
2022/06/11 11:59:18;;;;;;;1.95;0.50;;;;;;;;;;4998991;28;20050;-67
2022/06/11 12:01:45;;;;;;;3.45;0.60;;;;;;;;;;4997426;28;21288;-67
2022/06/11 12:04:27;;;;;;;1.88;0.55;;;;;;;;;;4999731;28;20042;-66
2022/06/11 12:06:55;;;;;;;4.55;0.50;;;;;;;;;;5000901;28;20053;-67
2022/06/11 12:09:22;;;;;;;2.75;0.73;;;;;;;;;;4999655;28;20115;-67
2022/06/11 12:12:01;;;;;;;4.47;0.60;;;;;;;;;;4997871;28;20053;-67
2022/06/11 12:14:32;;;;;;;4.03;0.73;;;;;;;;;;4998882;28;20050;-67
2022/06/11 12:17:03;;;;;;;9.77;0.90;;;;;;;;;;5002554;28;20038;-66
2022/06/11 12:19:34;;;;;;;9.52;0.82;;;;;;;;;;4999314;28;20045;-66
2022/06/11 12:22:10;;;;;;;1.70;0.50;;;;;;;;;;4998829;28;20062;-67
2022/06/11 12:24:44;;;;;;;3.72;0.80;;;;;;;;;;4998205;28;20919;-67
2022/06/11 12:27:17;;;;;;;2.15;0.50;;;;;;;;;;4999258;28;20832;-67
2022/06/11 12:29:51;;;;;;;4.78;0.60;;;;;;;;;;5000539;28;20099;-67
2022/06/11 12:32:23;;;;;;;2.55;0.70;;;;;;;;;;4998277;28;20140;-67
2022/06/11 12:34:51;;;;;;;3.72;0.60;;;;;;;;;;4998465;28;20049;-67
2022/06/11 12:37:22;;;;;;;1.83;0.60;;;;;;;;;;5001404;28;20034;-66
2022/06/11 12:39:48;;;;;;;5.05;0.70;;;;;;;;;;4999146;28;20030;-67
2022/06/11 12:42:21;;;;;;;5.53;0.60;;;;;;;;;;4997668;28;20052;-67
2022/06/11 12:44:50;;;;;;;3.35;0.55;;;;;;;;;;4997884;28;20502;-67
2022/06/11 12:47:42;;;;;;;3.97;0.70;;;;;;;;;;5000092;28;20541;-68
2022/06/11 12:50:18;;;;;;;4.07;0.93;;;;;;;;;;4998935;28;20347;-67
2022/06/11 12:53:23;;;;;;;4.47;0.70;;;;;;;;;;5001231;28;20518;-67
2022/06/11 12:55:57;;;;;;;2.75;0.90;;;;;;;;;;4976704;28;20066;-68
2022/06/11 12:58:34;;;;;;;5.03;0.95;;;;;;;;;;4977795;28;20078;-67
2022/06/11 13:01:05;;;;;;;8.30;1.05;;;;;;;;;;4990422;28;20049;-68
2022/06/11 13:03:50;;;;;;;2.58;0.73;;;;;;;;;;4999484;28;20290;-67
2022/06/11 13:06:20;;;;;;;6.00;0.82;;;;;;;;;;5002099;28;20486;-67
2022/06/11 13:08:57;;;;;;;3.35;1.00;;;;;;;;;;5000490;28;20050;-67
2022/06/11 13:11:42;;;;;;;6.32;1.17;;;;;;;;;;4999680;28;20042;-68
2022/06/11 13:14:09;;;;;;;3.75;0.90;;;;;;;;;;5001042;28;20056;-68
2022/06/11 13:16:49;;;;;;;2.55;0.70;;;;;;;;;;5000162;28;20040;-69
2022/06/11 13:19:15;;;;;;;2.97;0.70;;;;;;;;;;4997652;28;20052;-68
2022/06/11 13:22:00;;;;;;;4.45;0.88;;;;;;;;;;4997320;28;20054;-69
2022/06/11 13:24:27;;;;;;;2.45;0.70;;;;;;;;;;4998076;28;20060;-67
2022/06/11 13:27:00;;;;;;;5.70;0.88;;;;;;;;;;5000618;28;20075;-68
2022/06/11 13:29:44;;;;;;;3.17;0.60;;;;;;;;;;4997699;28;20038;-67
2022/06/11 13:32:34;;;;;;;5.57;0.88;;;;;;;;;;4999515;28;20065;-67
2022/06/11 13:35:19;;;;;;;3.90;1.10;;;;;;;;;;4998011;28;20066;-69
2022/06/11 13:37:59;;;;;;;2.38;0.77;;;;;;;;;;4998136;28;20375;-68
2022/06/11 13:40:33;;;;;;;4.13;0.60;;;;;;;;;;4999231;28;20046;-68
2022/06/11 13:42:59;;;;;;;2.10;0.60;;;;;;;;;;4999351;28;20852;-68
2022/06/11 13:45:34;;;;;;;3.78;0.80;;;;;;;;;;4999222;28;20070;-66
2022/06/11 13:48:01;;;;;;;2.30;0.70;;;;;;;;;;5001969;28;20045;-68
2022/06/11 13:50:44;;;;;;;5.50;0.68;;;;;;;;;;5001687;28;20052;-68
2022/06/11 13:56:26;;;;;;;3.25;0.80;;;;;;;;;;5003190;28;20040;-68
2022/06/11 13:58:53;;;;;;;4.40;0.57;;;;;;;;;;5000770;28;20054;-68
2022/06/11 14:01:28;;;;;;;3.13;0.70;;;;;;;;;;5011788;28;20061;-68
2022/06/11 14:04:01;;;;;;;3.17;0.80;;;;;;;;;;4998441;28;20125;-68
2022/06/11 14:06:28;;;;;;;4.53;0.77;;;;;;;;;;5030032;28;20045;-68
2022/06/11 14:09:01;;;;;;;2.30;0.70;;;;;;;;;;5030384;28;20030;-68
2022/06/11 14:11:31;;;;;;;4.13;0.70;;;;;;;;;;4997449;28;20049;-68
2022/06/11 14:13:59;;;;;;;3.90;0.70;;;;;;;;;;4998101;28;20095;-68
2022/06/11 14:16:32;;;;;;;5.60;0.80;;;;;;;;;;4996946;28;20072;-68
2022/06/11 14:19:00;;;;;;;2.25;0.60;;;;;;;;;;4998524;28;20038;-68
2022/06/11 14:21:39;;;;;;;3.53;0.65;;;;;;;;;;4996377;28;20042;-69
2022/06/11 14:24:06;;;;;;;3.67;0.80;;;;;;;;;;4998803;28;20126;-68
2022/06/11 14:26:50;;;;;;;2.50;0.80;;;;;;;;;;4997665;28;20577;-68
2022/06/11 14:29:22;;;;;;;3.17;1.23;;;;;;;;;;4997503;28;20065;-67
2022/06/11 14:31:50;;;;;;;4.05;0.90;;;;;;;;;;4996432;28;20054;-69
2022/06/11 14:34:35;;;;;;;4.40;0.63;;;;;;;;;;4998927;28;20046;-69
2022/06/11 14:37:11;;;;;;;5.70;0.85;;;;;;;;;;5030162;28;20065;-69
2022/06/11 14:39:39;;;;;;;3.05;0.63;;;;;;;;;;4997189;28;20076;-69
2022/06/11 14:42:13;;;;;;;2.38;0.60;;;;;;;;;;4997924;28;20053;-69
2022/06/11 14:44:40;;;;;;;2.70;0.60;;;;;;;;;;4998272;28;20041;-69
2022/06/11 14:47:26;;;;;;;1.05;0.40;;;;;;;;;;4999789;28;20049;-69
2022/06/11 14:49:52;;;;;;;2.22;0.60;;;;;;;;;;4999862;28;20045;-69
2022/06/11 14:52:19;;;;;;;2.03;0.60;;;;;;;;;;5016016;28;20033;-69
2022/06/11 14:54:46;;;;;;;2.55;0.60;;;;;;;;;;4996230;28;20550;-69
2022/06/11 14:57:31;;;;;;;3.47;0.85;;;;;;;;;;5001860;28;20639;-69
2022/06/11 15:00:18;;;;;;;2.45;0.50;;;;;;;;;;4997228;28;20056;-68
2022/06/11 15:02:51;;;;;;;2.25;0.60;;;;;;;;;;4998924;28;20057;-68
2022/06/11 15:05:21;;;;;;;3.28;0.45;;;;;;;;;;5006335;28;20065;-68
2022/06/11 15:08:11;;;;;;;1.73;0.55;;;;;;;;;;5004717;28;20040;-69
2022/06/11 15:10:42;;;;;;;2.78;0.60;;;;;;;;;;5002109;28;20037;-69